createdAt,value
2023-01-23T00:01:44.126Z,16.32
2023-01-23T00:04:14.223Z,16.28
2023-01-23T00:06:43.671Z,16.28
2023-01-23T00:09:12.116Z,16.25
2023-01-23T00:11:40.853Z,16.23
2023-01-23T00:14:10.679Z,16.22
2023-01-23T00:16:39.513Z,16.16
2023-01-23T00:19:07.955Z,16.15
2023-01-23T00:21:38.092Z,16.13
2023-01-23T00:24:07.733Z,16.13
2023-01-23T00:26:36.514Z,16.10
2023-01-23T00:29:05.041Z,16.10
2023-01-23T00:31:38.563Z,16.08
2023-01-23T00:34:12.011Z,16.02
2023-01-23T00:36:43.707Z,16.01
2023-01-23T00:39:21.352Z,15.96
2023-01-23T00:41:50.420Z,15.99
2023-01-23T00:44:19.155Z,15.99
2023-01-23T00:46:48.832Z,15.98
2023-01-23T00:49:19.857Z,15.96
2023-01-23T00:51:50.705Z,15.95
2023-01-23T00:54:21.500Z,15.93
2023-01-23T00:56:50.282Z,15.92
2023-01-23T00:59:18.863Z,15.89
2023-01-23T01:01:47.857Z,15.88
2023-01-23T01:04:16.345Z,15.87
2023-01-23T01:06:45.135Z,15.87
2023-01-23T01:09:13.634Z,15.86
2023-01-23T01:11:42.519Z,15.84
2023-01-23T01:14:11.090Z,15.82
2023-01-23T01:16:45.471Z,15.78
2023-01-23T01:19:15.022Z,15.79
2023-01-23T01:21:43.975Z,15.77
2023-01-23T01:24:13.508Z,15.77
2023-01-23T01:26:42.574Z,15.76
2023-01-23T01:29:11.523Z,15.69
2023-01-23T01:31:40.358Z,15.72
2023-01-23T01:34:08.989Z,15.68
2023-01-23T01:36:38.492Z,15.70
2023-01-23T01:39:06.982Z,15.69
2023-01-23T01:41:36.963Z,15.66
2023-01-23T01:44:05.455Z,15.65
2023-01-23T01:46:34.431Z,15.65
2023-01-23T01:49:09.063Z,15.63
2023-01-23T01:51:56.031Z,15.63
2023-01-23T01:54:44.269Z,15.59
2023-01-23T01:57:33.128Z,15.60
2023-01-23T02:00:18.674Z,15.50
2023-01-23T02:03:01.212Z,15.56
2023-01-23T02:05:42.191Z,15.55
2023-01-23T02:08:38.272Z,15.54
2023-01-23T02:11:07.963Z,15.54
2023-01-23T02:13:39.098Z,15.51
2023-01-23T02:16:10.911Z,15.48
2023-01-23T02:18:45.650Z,15.48
2023-01-23T02:21:15.397Z,15.49
2023-01-23T02:24:15.116Z,15.43
2023-01-23T02:26:45.802Z,15.47
2023-01-23T02:29:15.785Z,15.45
2023-01-23T02:31:53.914Z,15.46
2023-01-23T02:34:26.503Z,15.43
2023-01-23T02:37:00.548Z,15.43
2023-01-23T02:39:29.678Z,15.42
2023-01-23T02:41:58.603Z,15.39
2023-01-23T02:44:41.620Z,15.40
2023-01-23T02:47:12.599Z,15.37
2023-01-23T02:49:43.352Z,15.27
2023-01-23T02:52:12.593Z,15.36
2023-01-23T02:54:41.449Z,15.36
2023-01-23T02:57:13.298Z,15.35
2023-01-23T03:00:01.011Z,15.33
2023-01-23T03:02:29.972Z,15.33
2023-01-23T03:04:58.892Z,15.30
2023-01-23T03:07:29.843Z,15.31
2023-01-23T03:09:58.735Z,15.30
2023-01-23T03:12:28.190Z,15.30
2023-01-23T03:14:58.211Z,15.29
2023-01-23T03:17:27.412Z,15.28
2023-01-23T03:19:57.939Z,15.27
2023-01-23T03:22:27.494Z,15.27
2023-01-23T03:24:58.172Z,15.26
2023-01-23T03:27:26.891Z,15.24
2023-01-23T03:30:13.747Z,15.24
2023-01-23T03:32:45.937Z,15.23
2023-01-23T03:35:20.530Z,15.17
2023-01-23T03:37:52.563Z,15.21
2023-01-23T03:40:43.995Z,15.18
2023-01-23T03:43:16.215Z,15.19
2023-01-23T03:45:51.243Z,15.18
2023-01-23T03:48:19.953Z,15.16
2023-01-23T03:50:50.995Z,15.13
2023-01-23T03:53:22.786Z,15.15
2023-01-23T03:55:51.831Z,15.14
2023-01-23T03:58:21.090Z,15.15
2023-01-23T04:00:50.319Z,15.13
2023-01-23T04:03:19.152Z,15.12
2023-01-23T04:05:48.895Z,15.11
2023-01-23T04:08:19.201Z,15.09
2023-01-23T04:10:49.392Z,15.10
2023-01-23T04:13:18.452Z,15.07
2023-01-23T04:15:48.913Z,15.07
2023-01-23T04:18:17.936Z,15.07
2023-01-23T04:20:47.972Z,15.05
2023-01-23T04:23:16.781Z,15.04
2023-01-23T04:25:45.614Z,15.03
2023-01-23T04:28:15.739Z,15.02
2023-01-23T04:30:47.027Z,15.03
2023-01-23T04:33:22.115Z,15.03
2023-01-23T04:35:57.208Z,14.98
2023-01-23T04:38:28.559Z,14.99
2023-01-23T04:40:57.833Z,15.00
2023-01-23T04:43:26.401Z,15.07
2023-01-23T04:45:56.980Z,15.11
2023-01-23T04:48:28.132Z,15.19
2023-01-23T04:50:57.068Z,15.26
2023-01-23T04:53:25.672Z,15.32
2023-01-23T04:56:01.311Z,15.40
2023-01-23T04:58:29.924Z,15.50
2023-01-23T05:01:08.331Z,15.61
2023-01-23T05:03:39.170Z,15.71
2023-01-23T05:06:08.260Z,15.78
2023-01-23T05:08:37.171Z,15.86
2023-01-23T05:11:16.574Z,15.99
2023-01-23T05:13:46.051Z,16.06
2023-01-23T05:16:15.723Z,16.17
2023-01-23T05:19:16.114Z,16.16
2023-01-23T05:21:47.023Z,16.31
2023-01-23T05:24:22.189Z,16.39
2023-01-23T05:26:52.123Z,16.54
2023-01-23T05:29:22.013Z,16.54
2023-01-23T05:32:16.952Z,16.54
2023-01-23T05:34:45.564Z,16.67
2023-01-23T05:37:20.739Z,16.69
2023-01-23T05:39:53.650Z,16.82
2023-01-23T05:42:37.875Z,16.93
2023-01-23T05:45:26.996Z,17.05
2023-01-23T05:47:56.343Z,17.07
2023-01-23T05:50:25.688Z,17.09
2023-01-23T05:52:55.743Z,17.21
2023-01-23T05:55:24.643Z,17.16
2023-01-23T05:57:53.343Z,17.23
2023-01-23T06:00:40.513Z,17.26
2023-01-23T06:03:34.962Z,17.39
2023-01-23T06:06:24.946Z,17.40
2023-01-23T06:08:54.716Z,17.45
2023-01-23T06:11:23.395Z,17.45
2023-01-23T06:13:54.223Z,17.43
2023-01-23T06:16:23.714Z,17.47
2023-01-23T06:18:53.087Z,17.42
2023-01-23T06:21:23.291Z,17.37
2023-01-23T06:23:51.802Z,17.36
2023-01-23T06:26:23.959Z,17.27
2023-01-23T06:28:52.422Z,17.17
2023-01-23T06:31:21.324Z,17.14
2023-01-23T06:33:56.180Z,17.08
2023-01-23T06:36:30.691Z,17.02
2023-01-23T06:39:00.558Z,17.01
2023-01-23T06:41:38.274Z,17.00
2023-01-23T06:44:09.047Z,16.90
2023-01-23T06:46:41.694Z,16.91
2023-01-23T06:49:11.301Z,16.86
2023-01-23T06:51:41.534Z,16.82
2023-01-23T06:54:14.804Z,16.78
2023-01-23T06:56:43.699Z,16.74
2023-01-23T06:59:13.103Z,16.69
2023-01-23T07:01:43.301Z,16.64
2023-01-23T07:04:14.423Z,16.64
2023-01-23T07:06:47.374Z,16.58
2023-01-23T07:09:17.955Z,16.54
2023-01-23T07:11:56.593Z,16.51
2023-01-23T07:14:27.383Z,16.44
2023-01-23T07:16:58.807Z,16.43
2023-01-23T07:19:27.536Z,16.40
2023-01-23T07:22:01.823Z,16.35
2023-01-23T07:24:31.982Z,16.32
2023-01-23T07:27:00.832Z,16.29
2023-01-23T07:29:29.340Z,16.27
2023-01-23T07:32:01.562Z,16.23
2023-01-23T07:34:29.912Z,16.16
2023-01-23T07:37:00.163Z,16.17
2023-01-23T07:39:31.443Z,16.18
2023-01-23T07:42:00.310Z,16.15
2023-01-23T07:44:30.468Z,16.13
2023-01-23T07:46:59.194Z,16.09
2023-01-23T07:49:27.680Z,16.04
2023-01-23T07:51:56.484Z,16.04
2023-01-23T07:54:27.221Z,16.05
2023-01-23T07:56:57.084Z,16.05
2023-01-23T07:59:25.583Z,16.02
2023-01-23T08:01:55.668Z,15.99
2023-01-23T08:04:25.744Z,15.96
2023-01-23T08:06:54.515Z,15.96
2023-01-23T08:09:23.172Z,15.89
2023-01-23T08:11:52.831Z,15.91
2023-01-23T08:14:21.273Z,15.90
2023-01-23T08:16:53.070Z,15.86
2023-01-23T08:19:21.597Z,15.81
2023-01-23T08:21:50.414Z,15.84
2023-01-23T08:24:18.892Z,15.81
2023-01-23T08:26:47.837Z,15.78
2023-01-23T08:29:16.245Z,15.72
2023-01-23T08:31:45.002Z,15.71
2023-01-23T08:34:15.446Z,15.60
2023-01-23T08:36:46.193Z,15.68
2023-01-23T08:39:14.836Z,15.68
2023-01-23T08:41:43.532Z,15.64
2023-01-23T08:44:12.229Z,15.57
2023-01-23T08:46:41.112Z,15.58
2023-01-23T08:49:11.239Z,15.55
2023-01-23T08:51:44.055Z,15.53
2023-01-23T08:54:12.769Z,15.54
2023-01-23T08:56:44.392Z,15.51
2023-01-23T08:59:12.850Z,15.49
2023-01-23T09:01:41.541Z,15.48
2023-01-23T09:04:09.956Z,15.46
2023-01-23T09:06:39.156Z,15.46
2023-01-23T09:09:07.551Z,15.44
2023-01-23T09:11:38.531Z,15.42
2023-01-23T09:14:07.020Z,15.40
2023-01-23T09:16:35.837Z,15.40
2023-01-23T09:19:04.414Z,15.26
2023-01-23T09:21:33.164Z,15.37
2023-01-23T09:24:01.612Z,15.36
2023-01-23T09:26:30.494Z,15.34
2023-01-23T09:28:58.843Z,15.33
2023-01-23T09:31:27.589Z,15.32
2023-01-23T09:33:56.036Z,15.30
2023-01-23T09:36:41.397Z,15.31
2023-01-23T09:39:11.120Z,15.28
2023-01-23T09:41:41.692Z,15.27
2023-01-23T09:44:39.586Z,15.28
2023-01-23T09:47:23.825Z,15.27
2023-01-23T09:50:00.660Z,15.20
2023-01-23T09:52:43.615Z,15.22
2023-01-23T09:55:49.285Z,15.22
2023-01-23T09:59:05.531Z,15.22
2023-01-23T10:01:34.024Z,15.15
2023-01-23T10:04:02.990Z,15.15
2023-01-23T10:07:06.709Z,15.17
2023-01-23T10:09:48.330Z,15.12
2023-01-23T10:12:47.612Z,15.16
2023-01-23T10:15:38.730Z,15.14
2023-01-23T10:18:13.307Z,15.10
2023-01-23T10:21:13.514Z,15.14
2023-01-23T10:24:38.021Z,15.12
2023-01-23T10:27:24.342Z,15.11
2023-01-23T10:30:38.202Z,15.10
2023-01-23T10:33:17.614Z,15.09
2023-01-23T10:35:53.715Z,15.07
2023-01-23T10:38:40.393Z,15.08
2023-01-23T10:41:15.313Z,15.11
2023-01-23T10:43:55.361Z,15.17
2023-01-23T10:46:44.272Z,15.23
2023-01-23T10:49:24.562Z,15.33
2023-01-23T10:51:53.211Z,15.42
2023-01-23T10:54:34.003Z,15.50
2023-01-23T10:57:08.244Z,15.60
2023-01-23T10:59:39.833Z,15.68
2023-01-23T11:02:14.957Z,15.82
2023-01-23T11:04:46.265Z,15.88
2023-01-23T11:07:23.061Z,15.96
2023-01-23T11:09:57.526Z,16.11
2023-01-23T11:12:33.055Z,16.21
2023-01-23T11:15:24.159Z,16.25
2023-01-23T11:17:53.910Z,16.31
2023-01-23T11:20:39.261Z,16.43
2023-01-23T11:23:13.660Z,16.51
2023-01-23T11:25:45.363Z,16.64
2023-01-23T11:28:35.533Z,16.63
2023-01-23T11:31:21.897Z,16.78
2023-01-23T11:33:58.088Z,16.90
2023-01-23T11:36:48.863Z,16.90
2023-01-23T11:39:37.162Z,16.93
2023-01-23T11:42:08.061Z,16.97
2023-01-23T11:44:45.704Z,17.15
2023-01-23T11:47:41.204Z,17.24
2023-01-23T11:50:15.649Z,17.31
2023-01-23T11:53:07.416Z,17.40
2023-01-23T11:56:10.015Z,17.46
2023-01-23T11:59:10.379Z,17.49
2023-01-23T12:02:20.183Z,17.40
2023-01-23T12:05:13.645Z,17.32
2023-01-23T12:08:20.371Z,17.27
2023-01-23T12:11:16.814Z,17.23
2023-01-23T12:14:05.070Z,17.15
2023-01-23T12:16:48.582Z,17.09
2023-01-23T12:19:29.246Z,17.06
2023-01-23T12:22:00.954Z,16.96
2023-01-23T12:24:41.706Z,16.92
2023-01-23T12:27:34.627Z,16.92
2023-01-23T12:30:27.670Z,16.86
2023-01-23T12:33:20.496Z,16.87
2023-01-23T12:36:10.843Z,16.87
2023-01-23T12:38:55.702Z,16.82
2023-01-23T12:41:36.877Z,16.78
2023-01-23T12:44:12.956Z,16.71
2023-01-23T12:46:54.164Z,16.67
2023-01-23T12:49:45.815Z,16.63
2023-01-23T12:52:14.453Z,16.58
2023-01-23T12:54:53.894Z,16.53
2023-01-23T12:57:52.700Z,16.53
2023-01-23T13:01:06.264Z,16.49
2023-01-23T13:03:55.652Z,16.45
2023-01-23T13:06:28.901Z,16.41
2023-01-23T13:09:17.377Z,16.39
2023-01-23T13:12:22.713Z,16.33
2023-01-23T13:15:10.578Z,16.31
2023-01-23T13:18:02.316Z,16.26
2023-01-23T13:20:56.954Z,16.24
2023-01-23T13:23:35.927Z,16.21
2023-01-23T13:26:31.598Z,16.19
2023-01-23T13:29:02.716Z,16.14
2023-01-23T13:31:47.396Z,16.10
2023-01-23T13:34:16.773Z,16.07
2023-01-23T13:36:46.904Z,16.05
2023-01-23T13:39:19.987Z,16.02
2023-01-23T13:42:12.934Z,15.98
2023-01-23T13:45:16.436Z,15.95
2023-01-23T15:06:42.638Z,15.43
2023-01-23T15:09:17.063Z,15.42
2023-01-23T15:11:46.200Z,15.39
2023-01-23T15:14:27.332Z,15.37
2023-01-23T15:17:03.852Z,15.36
2023-01-23T15:19:32.900Z,15.35
2023-01-23T15:22:28.484Z,15.31
2023-01-23T15:24:57.557Z,15.30
2023-01-23T15:27:33.313Z,15.29
2023-01-23T15:30:31.574Z,15.28
2023-01-23T15:33:06.517Z,15.27
2023-01-23T15:35:36.807Z,15.24
2023-01-23T15:38:08.633Z,15.25
2023-01-23T15:40:38.435Z,15.24
2023-01-23T15:43:12.496Z,15.23
2023-01-23T15:45:41.480Z,15.20
2023-01-23T15:48:10.151Z,15.20
2023-01-23T15:50:39.228Z,15.21
2023-01-23T15:53:14.207Z,15.20
2023-01-23T15:55:43.165Z,15.18
2023-01-23T15:58:15.124Z,15.18
2023-01-23T16:00:44.545Z,15.19
2023-01-23T16:03:15.153Z,15.18
2023-01-23T16:05:44.114Z,15.16
2023-01-23T16:08:20.312Z,15.16
2023-01-23T16:10:50.495Z,15.18
2023-01-23T16:13:19.224Z,15.24
2023-01-23T16:15:48.934Z,15.24
2023-01-23T16:18:19.009Z,15.30
2023-01-23T16:20:48.080Z,15.37
2023-01-23T16:23:24.951Z,15.44
2023-01-23T16:25:54.124Z,15.57
2023-01-23T16:28:24.266Z,15.64
2023-01-23T16:30:53.577Z,15.71
2023-01-23T16:33:22.376Z,15.86
2023-01-23T16:35:51.772Z,15.93
2023-01-23T16:38:28.512Z,16.02
2023-01-23T16:41:00.706Z,16.16
2023-01-23T16:43:29.458Z,16.17
2023-01-23T16:45:58.581Z,16.29
2023-01-23T16:48:28.759Z,16.34
2023-01-23T16:51:11.863Z,16.41
2023-01-23T16:53:42.931Z,16.54
2023-01-23T16:56:23.849Z,16.67
2023-01-23T16:58:52.988Z,16.76
2023-01-23T17:01:23.228Z,16.88
2023-01-23T17:03:59.505Z,16.95
2023-01-23T17:06:29.620Z,16.99
2023-01-23T17:08:58.378Z,17.15
2023-01-23T17:11:35.590Z,17.17
2023-01-23T17:14:16.323Z,17.22
2023-01-23T17:16:45.457Z,17.25
2023-01-23T17:19:18.477Z,17.39
2023-01-23T17:21:47.525Z,17.51
2023-01-23T17:24:17.235Z,17.45
2023-01-23T17:26:46.448Z,17.63
2023-01-23T17:29:15.498Z,17.55
2023-01-23T17:31:44.755Z,17.62
2023-01-23T17:34:24.291Z,17.66
2023-01-23T17:36:54.566Z,17.80
2023-01-23T17:39:23.359Z,17.79
2023-01-23T17:41:54.077Z,17.69
2023-01-23T17:44:22.707Z,17.76
2023-01-23T17:46:54.978Z,17.79
2023-01-23T17:49:30.503Z,18.00
2023-01-23T17:52:02.162Z,18.05
2023-01-23T17:54:30.862Z,18.05
2023-01-23T17:57:00.035Z,18.11
2023-01-23T17:59:28.734Z,18.18
2023-01-23T18:01:58.959Z,18.19
2023-01-23T18:04:27.780Z,18.31
2023-01-23T18:06:57.920Z,18.26
2023-01-23T18:09:26.542Z,18.30
2023-01-23T18:11:56.061Z,18.38
2023-01-23T18:14:42.370Z,18.33
2023-01-23T18:17:50.269Z,18.42
2023-01-23T18:20:20.933Z,18.44
2023-01-23T18:22:51.667Z,18.45
2023-01-23T18:25:22.219Z,18.52
2023-01-23T18:27:55.777Z,18.44
2023-01-23T18:30:42.978Z,18.33
2023-01-23T18:33:21.802Z,18.28
2023-01-23T18:35:57.227Z,18.20
2023-01-23T18:38:37.716Z,18.14
2023-01-23T18:41:28.259Z,18.07
2023-01-23T18:44:15.548Z,18.03
2023-01-23T18:46:44.457Z,17.92
2023-01-23T18:49:21.495Z,17.93
2023-01-23T18:52:03.164Z,17.91
2023-01-23T18:54:51.937Z,17.83
2023-01-23T18:57:29.731Z,17.85
2023-01-23T19:00:20.177Z,17.88
2023-01-23T19:02:52.068Z,17.90
2023-01-23T19:05:33.915Z,17.92
2023-01-23T19:08:03.011Z,18.05
2023-01-23T19:10:47.558Z,18.10
2023-01-23T19:13:22.677Z,18.11
2023-01-23T19:16:19.420Z,18.18
2023-01-23T19:18:53.112Z,18.25
2023-01-23T19:21:27.020Z,18.20
2023-01-23T19:24:03.319Z,18.22
2023-01-23T19:26:40.871Z,18.21
2023-01-23T19:29:26.141Z,18.09
2023-01-23T19:32:09.910Z,18.08
2023-01-23T19:34:39.016Z,18.03
2023-01-23T19:37:08.392Z,17.90
2023-01-23T19:39:37.170Z,17.88
2023-01-23T19:42:06.319Z,17.82
2023-01-23T19:44:40.480Z,17.86
2023-01-23T19:47:35.318Z,17.81
2023-01-23T19:50:04.797Z,17.77
2023-01-23T19:52:35.723Z,17.68
2023-01-23T19:55:05.165Z,17.66
2023-01-23T19:57:34.653Z,17.63
2023-01-23T20:00:04.295Z,17.60
2023-01-23T20:02:40.939Z,17.52
2023-01-23T20:05:10.372Z,17.47
2023-01-23T20:07:39.759Z,17.44
2023-01-23T20:10:09.371Z,17.47
2023-01-23T20:12:57.054Z,17.50
2023-01-23T20:15:27.383Z,17.62
2023-01-23T20:17:58.262Z,17.62
2023-01-23T20:20:27.753Z,17.74
2023-01-23T20:22:56.981Z,17.76
2023-01-23T20:25:25.820Z,17.83
2023-01-23T20:27:55.051Z,17.95
2023-01-23T20:30:24.390Z,18.04
2023-01-23T20:32:54.530Z,18.09
2023-01-23T20:35:24.239Z,18.05
2023-01-23T20:37:54.354Z,18.00
2023-01-23T20:40:24.093Z,17.95
2023-01-23T20:42:54.224Z,17.86
2023-01-23T20:45:24.816Z,17.84
2023-01-23T20:47:58.560Z,17.81
2023-01-23T20:50:28.361Z,17.72
2023-01-23T20:53:17.181Z,17.74
2023-01-23T20:55:46.300Z,17.66
2023-01-23T20:58:34.133Z,17.65
2023-01-23T21:01:03.180Z,17.58
2023-01-23T21:03:32.682Z,17.55
2023-01-23T21:06:01.491Z,17.47
2023-01-23T21:08:30.620Z,17.48
2023-01-23T21:10:59.472Z,17.45
2023-01-23T21:13:28.652Z,17.42
2023-01-23T21:15:58.950Z,17.45
2023-01-23T21:18:27.925Z,17.46
2023-01-23T21:21:03.186Z,17.56
2023-01-23T21:23:32.371Z,17.61
2023-01-23T21:26:01.758Z,17.66
2023-01-23T21:28:33.454Z,17.77
2023-01-23T21:31:12.784Z,17.90
2023-01-23T21:33:49.443Z,18.01
2023-01-23T21:36:23.538Z,18.06
2023-01-23T21:38:53.089Z,18.11
2023-01-23T21:41:21.911Z,18.14
2023-01-23T21:43:50.983Z,18.19
2023-01-23T21:46:19.595Z,18.22
2023-01-23T21:48:49.648Z,18.20
2023-01-23T21:51:20.485Z,18.14
2023-01-23T21:53:50.191Z,18.15
2023-01-23T21:56:20.693Z,18.10
2023-01-23T21:58:50.861Z,18.06
2023-01-23T22:01:39.834Z,17.99
2023-01-23T22:04:18.985Z,17.91
2023-01-23T22:06:47.622Z,17.86
2023-01-23T22:09:18.430Z,17.82
2023-01-23T22:11:47.484Z,17.74
2023-01-23T22:14:17.460Z,17.71
2023-01-23T22:16:49.137Z,17.65
2023-01-23T22:19:24.728Z,17.59
2023-01-23T22:21:57.381Z,17.53
2023-01-23T22:24:26.285Z,17.49
2023-01-23T22:26:54.989Z,17.47
2023-01-23T22:29:24.176Z,17.40
2023-01-23T22:31:52.888Z,17.35
2023-01-23T22:34:21.826Z,17.27
2023-01-23T22:36:50.439Z,17.27
2023-01-23T22:39:20.287Z,17.25
2023-01-23T22:41:50.664Z,17.19
2023-01-23T22:44:20.747Z,17.14
2023-01-23T22:46:51.783Z,17.13
2023-01-23T22:49:20.895Z,17.09
2023-01-23T22:51:49.635Z,17.04
2023-01-23T22:54:18.773Z,17.01
2023-01-23T22:56:47.319Z,16.97
2023-01-23T22:59:16.370Z,16.93
2023-01-23T23:01:44.956Z,16.90
2023-01-23T23:04:13.749Z,16.83
2023-01-23T23:06:42.273Z,16.86
2023-01-23T23:09:11.037Z,16.83
2023-01-23T23:11:39.671Z,16.79
2023-01-23T23:14:09.745Z,16.71
2023-01-23T23:16:38.688Z,16.72
2023-01-23T23:19:07.535Z,16.72
2023-01-23T23:21:36.981Z,16.69
2023-01-23T23:24:07.818Z,16.67
2023-01-23T23:26:36.399Z,16.61
2023-01-23T23:29:05.284Z,16.55
2023-01-23T23:31:33.864Z,16.59
2023-01-23T23:34:02.857Z,16.48
2023-01-23T23:36:31.280Z,16.53
2023-01-23T23:39:00.079Z,16.47
2023-01-23T23:41:28.628Z,16.48
2023-01-23T23:43:57.466Z,16.44
2023-01-23T23:46:26.017Z,16.42
2023-01-23T23:48:54.753Z,16.42
2023-01-23T23:51:23.508Z,16.39
2023-01-23T23:53:52.307Z,16.34
2023-01-23T23:56:27.059Z,16.35
2023-01-23T23:58:56.098Z,16.30
